sensor_id;sensor_type;location;lat;lon;timestamp;temperature;humidity
52209;DHT22;38507;53.132;6.394;2023-02-11T00:00:07;6.60;99.90
52209;DHT22;38507;53.132;6.394;2023-02-11T00:02:33;6.20;99.90
52209;DHT22;38507;53.132;6.394;2023-02-11T00:04:59;6.80;99.90
52209;DHT22;38507;53.132;6.394;2023-02-11T00:07:32;6.20;99.90
52209;DHT22;38507;53.132;6.394;2023-02-11T00:09:58;7.30;99.90
52209;DHT22;38507;53.132;6.394;2023-02-11T00:12:25;7.40;99.90
52209;DHT22;38507;53.132;6.394;2023-02-11T00:14:50;6.70;99.90
52209;DHT22;38507;53.132;6.394;2023-02-11T00:17:16;6.20;99.90
52209;DHT22;38507;53.132;6.394;2023-02-11T00:19:42;7.10;99.90
52209;DHT22;38507;53.132;6.394;2023-02-11T00:22:08;7.10;99.90
52209;DHT22;38507;53.132;6.394;2023-02-11T00:24:35;6.70;99.90
52209;DHT22;38507;53.132;6.394;2023-02-11T00:27:01;7.20;99.90
52209;DHT22;38507;53.132;6.394;2023-02-11T00:29:27;6.90;99.90
52209;DHT22;38507;53.132;6.394;2023-02-11T00:31:52;6.30;99.90
52209;DHT22;38507;53.132;6.394;2023-02-11T00:34:18;6.30;99.90
52209;DHT22;38507;53.132;6.394;2023-02-11T00:36:44;7.10;99.90
52209;DHT22;38507;53.132;6.394;2023-02-11T00:39:14;7.20;99.90
52209;DHT22;38507;53.132;6.394;2023-02-11T00:41:40;5.30;99.90
52209;DHT22;38507;53.132;6.394;2023-02-11T00:44:05;7.00;99.90
52209;DHT22;38507;53.132;6.394;2023-02-11T00:46:31;7.20;99.90
52209;DHT22;38507;53.132;6.394;2023-02-11T00:48:57;6.40;99.90
52209;DHT22;38507;53.132;6.394;2023-02-11T00:51:26;5.60;99.90
52209;DHT22;38507;53.132;6.394;2023-02-11T00:53:53;6.50;99.90
52209;DHT22;38507;53.132;6.394;2023-02-11T00:56:21;6.10;99.90
52209;DHT22;38507;53.132;6.394;2023-02-11T00:58:47;7.20;99.90
52209;DHT22;38507;53.132;6.394;2023-02-11T01:01:13;6.80;99.90
52209;DHT22;38507;53.132;6.394;2023-02-11T01:03:39;6.00;99.90
52209;DHT22;38507;53.132;6.394;2023-02-11T01:06:06;7.10;99.90
52209;DHT22;38507;53.132;6.394;2023-02-11T01:08:31;5.90;99.90
52209;DHT22;38507;53.132;6.394;2023-02-11T01:11:05;5.80;99.90
52209;DHT22;38507;53.132;6.394;2023-02-11T01:13:33;5.80;99.90
52209;DHT22;38507;53.132;6.394;2023-02-11T01:15:59;5.80;99.90
52209;DHT22;38507;53.132;6.394;2023-02-11T01:18:25;6.90;99.90
52209;DHT22;38507;53.132;6.394;2023-02-11T01:20:52;7.00;99.90
52209;DHT22;38507;53.132;6.394;2023-02-11T01:23:18;7.10;99.90
52209;DHT22;38507;53.132;6.394;2023-02-11T01:25:45;6.70;99.90
52209;DHT22;38507;53.132;6.394;2023-02-11T01:28:22;6.80;99.90
52209;DHT22;38507;53.132;6.394;2023-02-11T01:30:48;6.80;99.90
52209;DHT22;38507;53.132;6.394;2023-02-11T01:33:14;6.30;99.90
52209;DHT22;38507;53.132;6.394;2023-02-11T01:35:40;6.50;99.90
52209;DHT22;38507;53.132;6.394;2023-02-11T01:38:07;6.50;99.90
52209;DHT22;38507;53.132;6.394;2023-02-11T01:40:38;6.70;99.90
52209;DHT22;38507;53.132;6.394;2023-02-11T01:43:04;6.80;99.90
52209;DHT22;38507;53.132;6.394;2023-02-11T01:48:30;5.70;99.90
52209;DHT22;38507;53.132;6.394;2023-02-11T01:51:10;5.70;99.90
52209;DHT22;38507;53.132;6.394;2023-02-11T01:53:37;5.70;99.90
52209;DHT22;38507;53.132;6.394;2023-02-11T01:56:22;5.70;99.90
52209;DHT22;38507;53.132;6.394;2023-02-11T01:59:14;6.40;99.90
52209;DHT22;38507;53.132;6.394;2023-02-11T02:01:44;5.70;99.90
52209;DHT22;38507;53.132;6.394;2023-02-11T02:04:15;6.80;99.90
52209;DHT22;38507;53.132;6.394;2023-02-11T02:06:58;7.00;99.90
52209;DHT22;38507;53.132;6.394;2023-02-11T02:09:27;5.60;99.90
52209;DHT22;38507;53.132;6.394;2023-02-11T02:11:54;6.30;99.90
52209;DHT22;38507;53.132;6.394;2023-02-11T02:14:20;5.70;99.90
52209;DHT22;38507;53.132;6.394;2023-02-11T02:16:46;5.80;99.90
52209;DHT22;38507;53.132;6.394;2023-02-11T02:19:29;7.00;99.90
52209;DHT22;38507;53.132;6.394;2023-02-11T02:22:10;5.70;99.90
52209;DHT22;38507;53.132;6.394;2023-02-11T02:24:55;5.80;99.90
52209;DHT22;38507;53.132;6.394;2023-02-11T02:33:19;5.80;99.90
52209;DHT22;38507;53.132;6.394;2023-02-11T02:41:15;6.60;99.90
52209;DHT22;38507;53.132;6.394;2023-02-11T02:43:46;6.90;99.90
52209;DHT22;38507;53.132;6.394;2023-02-11T02:46:32;5.90;99.90
52209;DHT22;38507;53.132;6.394;2023-02-11T02:48:59;5.80;99.90
52209;DHT22;38507;53.132;6.394;2023-02-11T02:52:11;6.80;99.90
52209;DHT22;38507;53.132;6.394;2023-02-11T02:57:26;6.00;99.90
52209;DHT22;38507;53.132;6.394;2023-02-11T02:59:58;6.00;99.90
52209;DHT22;38507;53.132;6.394;2023-02-11T03:08:04;6.10;99.90
52209;DHT22;38507;53.132;6.394;2023-02-11T03:10:36;6.90;99.90
52209;DHT22;38507;53.132;6.394;2023-02-11T03:13:04;7.00;99.90
52209;DHT22;38507;53.132;6.394;2023-02-11T03:15:35;7.10;99.90
52209;DHT22;38507;53.132;6.394;2023-02-11T03:18:03;6.60;99.90
52209;DHT22;38507;53.132;6.394;2023-02-11T03:20:32;6.10;99.90
52209;DHT22;38507;53.132;6.394;2023-02-11T03:25:37;6.80;99.90
52209;DHT22;38507;53.132;6.394;2023-02-11T03:28:31;7.30;99.90
52209;DHT22;38507;53.132;6.394;2023-02-11T03:31:11;6.10;99.90
52209;DHT22;38507;53.132;6.394;2023-02-11T03:36:14;7.10;99.90
52209;DHT22;38507;53.132;6.394;2023-02-11T03:38:48;6.50;99.90
52209;DHT22;38507;53.132;6.394;2023-02-11T03:41:16;7.20;99.90
52209;DHT22;38507;53.132;6.394;2023-02-11T03:43:47;7.20;99.90
52209;DHT22;38507;53.132;6.394;2023-02-11T03:46:17;7.40;99.90
52209;DHT22;38507;53.132;6.394;2023-02-11T03:48:49;7.30;99.90
52209;DHT22;38507;53.132;6.394;2023-02-11T03:51:19;6.20;99.90
52209;DHT22;38507;53.132;6.394;2023-02-11T03:53:46;7.30;99.90
52209;DHT22;38507;53.132;6.394;2023-02-11T03:56:21;7.30;99.90
52209;DHT22;38507;53.132;6.394;2023-02-11T03:58:48;6.80;99.90
52209;DHT22;38507;53.132;6.394;2023-02-11T04:01:14;7.00;99.90
52209;DHT22;38507;53.132;6.394;2023-02-11T04:03:40;6.30;99.90
52209;DHT22;38507;53.132;6.394;2023-02-11T04:06:06;6.50;99.90
52209;DHT22;38507;53.132;6.394;2023-02-11T04:08:32;6.30;99.90
52209;DHT22;38507;53.132;6.394;2023-02-11T04:10:58;7.50;99.90
52209;DHT22;38507;53.132;6.394;2023-02-11T04:13:24;7.20;99.90
52209;DHT22;38507;53.132;6.394;2023-02-11T04:15:49;7.50;99.90
52209;DHT22;38507;53.132;6.394;2023-02-11T04:18:15;6.90;99.90
52209;DHT22;38507;53.132;6.394;2023-02-11T04:20:41;7.20;99.90
52209;DHT22;38507;53.132;6.394;2023-02-11T04:23:06;7.30;99.90
52209;DHT22;38507;53.132;6.394;2023-02-11T04:25:32;7.40;99.90
52209;DHT22;38507;53.132;6.394;2023-02-11T04:27:58;7.40;99.90
52209;DHT22;38507;53.132;6.394;2023-02-11T04:30:23;6.50;99.90
52209;DHT22;38507;53.132;6.394;2023-02-11T04:32:49;7.50;99.90
52209;DHT22;38507;53.132;6.394;2023-02-11T04:35:15;7.30;99.90
52209;DHT22;38507;53.132;6.394;2023-02-11T04:37:40;6.40;99.90
52209;DHT22;38507;53.132;6.394;2023-02-11T04:40:06;7.60;99.90
52209;DHT22;38507;53.132;6.394;2023-02-11T04:42:32;6.40;99.90
52209;DHT22;38507;53.132;6.394;2023-02-11T04:44:58;6.40;99.90
52209;DHT22;38507;53.132;6.394;2023-02-11T04:47:24;7.30;99.90
52209;DHT22;38507;53.132;6.394;2023-02-11T04:49:49;6.50;99.90
52209;DHT22;38507;53.132;6.394;2023-02-11T04:52:18;7.30;99.90
52209;DHT22;38507;53.132;6.394;2023-02-11T04:54:44;7.30;99.90
52209;DHT22;38507;53.132;6.394;2023-02-11T04:57:09;7.00;99.90
52209;DHT22;38507;53.132;6.394;2023-02-11T04:59:35;7.20;99.90
52209;DHT22;38507;53.132;6.394;2023-02-11T05:02:01;7.40;99.90
52209;DHT22;38507;53.132;6.394;2023-02-11T05:04:26;7.10;99.90
52209;DHT22;38507;53.132;6.394;2023-02-11T05:06:52;6.60;99.90
52209;DHT22;38507;53.132;6.394;2023-02-11T05:09:18;7.50;99.90
52209;DHT22;38507;53.132;6.394;2023-02-11T05:11:43;7.70;99.90
52209;DHT22;38507;53.132;6.394;2023-02-11T05:14:09;7.30;99.90
52209;DHT22;38507;53.132;6.394;2023-02-11T05:16:35;7.70;99.90
52209;DHT22;38507;53.132;6.394;2023-02-11T05:19:00;7.10;99.90
52209;DHT22;38507;53.132;6.394;2023-02-11T05:21:26;7.80;99.90
52209;DHT22;38507;53.132;6.394;2023-02-11T05:23:52;7.60;99.90
52209;DHT22;38507;53.132;6.394;2023-02-11T05:26:18;7.50;99.90
52209;DHT22;38507;53.132;6.394;2023-02-11T05:28:50;7.20;99.90
52209;DHT22;38507;53.132;6.394;2023-02-11T05:31:31;7.60;99.90
52209;DHT22;38507;53.132;6.394;2023-02-11T05:33:57;7.70;99.90
52209;DHT22;38507;53.132;6.394;2023-02-11T05:36:26;7.30;99.90
52209;DHT22;38507;53.132;6.394;2023-02-11T05:38:54;7.60;99.90
52209;DHT22;38507;53.132;6.394;2023-02-11T05:41:34;7.50;99.90
52209;DHT22;38507;53.132;6.394;2023-02-11T05:44:12;7.60;99.90
52209;DHT22;38507;53.132;6.394;2023-02-11T05:46:37;7.50;99.90
52209;DHT22;38507;53.132;6.394;2023-02-11T05:49:03;6.60;99.90
52209;DHT22;38507;53.132;6.394;2023-02-11T05:51:29;7.40;99.90
52209;DHT22;38507;53.132;6.394;2023-02-11T05:53:54;7.10;99.90
52209;DHT22;38507;53.132;6.394;2023-02-11T05:56:20;7.30;99.90
52209;DHT22;38507;53.132;6.394;2023-02-11T05:58:46;7.10;99.90
52209;DHT22;38507;53.132;6.394;2023-02-11T06:01:11;7.50;99.90
52209;DHT22;38507;53.132;6.394;2023-02-11T06:03:37;7.60;99.90
52209;DHT22;38507;53.132;6.394;2023-02-11T06:06:03;7.40;99.90
52209;DHT22;38507;53.132;6.394;2023-02-11T06:08:28;6.60;99.90
52209;DHT22;38507;53.132;6.394;2023-02-11T06:10:54;7.40;99.90
52209;DHT22;38507;53.132;6.394;2023-02-11T06:13:20;7.40;99.90
52209;DHT22;38507;53.132;6.394;2023-02-11T06:15:55;6.50;99.90
52209;DHT22;38507;53.132;6.394;2023-02-11T06:18:21;7.70;99.90
52209;DHT22;38507;53.132;6.394;2023-02-11T06:20:46;7.40;99.90
52209;DHT22;38507;53.132;6.394;2023-02-11T06:23:12;6.50;99.90
52209;DHT22;38507;53.132;6.394;2023-02-11T06:25:38;7.60;99.90
52209;DHT22;38507;53.132;6.394;2023-02-11T06:28:03;6.70;99.90
52209;DHT22;38507;53.132;6.394;2023-02-11T06:30:29;6.60;99.90
52209;DHT22;38507;53.132;6.394;2023-02-11T06:32:55;6.40;99.90
52209;DHT22;38507;53.132;6.394;2023-02-11T06:35:20;7.30;99.90
52209;DHT22;38507;53.132;6.394;2023-02-11T06:37:46;7.30;99.90
52209;DHT22;38507;53.132;6.394;2023-02-11T06:40:14;7.30;99.90
52209;DHT22;38507;53.132;6.394;2023-02-11T06:42:40;7.10;99.90
52209;DHT22;38507;53.132;6.394;2023-02-11T06:45:07;7.00;99.90
52209;DHT22;38507;53.132;6.394;2023-02-11T06:47:38;6.30;99.90
52209;DHT22;38507;53.132;6.394;2023-02-11T06:50:06;7.20;99.90
52209;DHT22;38507;53.132;6.394;2023-02-11T06:52:33;6.30;99.90
52209;DHT22;38507;53.132;6.394;2023-02-11T06:54:59;6.80;99.90
52209;DHT22;38507;53.132;6.394;2023-02-11T06:57:25;6.30;99.90
52209;DHT22;38507;53.132;6.394;2023-02-11T06:59:50;7.10;99.90
52209;DHT22;38507;53.132;6.394;2023-02-11T07:02:16;7.30;99.90
52209;DHT22;38507;53.132;6.394;2023-02-11T07:04:42;7.40;99.90
52209;DHT22;38507;53.132;6.394;2023-02-11T07:07:07;7.20;99.90
52209;DHT22;38507;53.132;6.394;2023-02-11T07:09:33;6.40;99.90
52209;DHT22;38507;53.132;6.394;2023-02-11T07:11:59;7.40;99.90
52209;DHT22;38507;53.132;6.394;2023-02-11T07:14:24;7.30;99.90
52209;DHT22;38507;53.132;6.394;2023-02-11T07:16:50;7.30;99.90
52209;DHT22;38507;53.132;6.394;2023-02-11T07:19:16;7.30;99.90
52209;DHT22;38507;53.132;6.394;2023-02-11T07:21:41;7.00;99.90
52209;DHT22;38507;53.132;6.394;2023-02-11T07:24:08;7.10;99.90
52209;DHT22;38507;53.132;6.394;2023-02-11T07:26:35;7.30;99.90
52209;DHT22;38507;53.132;6.394;2023-02-11T07:29:01;7.10;99.90
52209;DHT22;38507;53.132;6.394;2023-02-11T07:31:28;6.50;99.90
52209;DHT22;38507;53.132;6.394;2023-02-11T07:33:56;7.40;99.90
52209;DHT22;38507;53.132;6.394;2023-02-11T07:36:23;7.10;99.90
52209;DHT22;38507;53.132;6.394;2023-02-11T07:38:50;7.40;99.90
52209;DHT22;38507;53.132;6.394;2023-02-11T07:41:19;6.50;99.90
52209;DHT22;38507;53.132;6.394;2023-02-11T07:43:45;7.40;99.90
52209;DHT22;38507;53.132;6.394;2023-02-11T07:46:16;6.60;99.90
52209;DHT22;38507;53.132;6.394;2023-02-11T07:48:43;7.30;99.90
52209;DHT22;38507;53.132;6.394;2023-02-11T07:53:42;6.60;99.90
52209;DHT22;38507;53.132;6.394;2023-02-11T07:56:09;7.50;99.90
52209;DHT22;38507;53.132;6.394;2023-02-11T07:58:35;7.80;99.90
52209;DHT22;38507;53.132;6.394;2023-02-11T08:01:06;6.70;99.90
52209;DHT22;38507;53.132;6.394;2023-02-11T08:03:33;7.10;99.90
52209;DHT22;38507;53.132;6.394;2023-02-11T08:06:03;7.90;99.90
52209;DHT22;38507;53.132;6.394;2023-02-11T08:08:29;6.80;99.90
52209;DHT22;38507;53.132;6.394;2023-02-11T08:10:55;7.90;99.90
52209;DHT22;38507;53.132;6.394;2023-02-11T08:13:20;6.70;99.90
52209;DHT22;38507;53.132;6.394;2023-02-11T08:15:46;6.80;99.90
52209;DHT22;38507;53.132;6.394;2023-02-11T08:18:14;7.60;99.90
52209;DHT22;38507;53.132;6.394;2023-02-11T08:20:40;7.20;99.90
52209;DHT22;38507;53.132;6.394;2023-02-11T08:23:06;7.80;99.90
52209;DHT22;38507;53.132;6.394;2023-02-11T08:25:32;7.80;99.90
52209;DHT22;38507;53.132;6.394;2023-02-11T08:27:58;6.80;99.90
52209;DHT22;38507;53.132;6.394;2023-02-11T08:30:36;7.90;99.90
52209;DHT22;38507;53.132;6.394;2023-02-11T08:33:05;7.90;99.90
52209;DHT22;38507;53.132;6.394;2023-02-11T08:35:30;7.60;99.90
52209;DHT22;38507;53.132;6.394;2023-02-11T08:37:57;7.70;99.90
52209;DHT22;38507;53.132;6.394;2023-02-11T08:40:23;7.80;99.90
52209;DHT22;38507;53.132;6.394;2023-02-11T08:42:49;8.00;99.90
52209;DHT22;38507;53.132;6.394;2023-02-11T08:45:15;7.90;99.90
52209;DHT22;38507;53.132;6.394;2023-02-11T08:47:41;7.00;99.90
52209;DHT22;38507;53.132;6.394;2023-02-11T08:50:06;7.60;99.90
52209;DHT22;38507;53.132;6.394;2023-02-11T08:52:32;7.10;99.90
52209;DHT22;38507;53.132;6.394;2023-02-11T08:54:58;8.20;99.90
52209;DHT22;38507;53.132;6.394;2023-02-11T08:57:23;8.10;99.90
52209;DHT22;38507;53.132;6.394;2023-02-11T08:59:49;7.20;99.90
52209;DHT22;38507;53.132;6.394;2023-02-11T09:02:15;8.30;99.90
52209;DHT22;38507;53.132;6.394;2023-02-11T09:04:40;7.30;99.90
52209;DHT22;38507;53.132;6.394;2023-02-11T09:07:06;8.30;99.90
52209;DHT22;38507;53.132;6.394;2023-02-11T09:09:32;8.00;99.90
52209;DHT22;38507;53.132;6.394;2023-02-11T09:12:01;8.30;99.90
52209;DHT22;38507;53.132;6.394;2023-02-11T09:14:27;7.30;99.90
52209;DHT22;38507;53.132;6.394;2023-02-11T09:16:52;8.50;99.90
52209;DHT22;38507;53.132;6.394;2023-02-11T09:19:19;8.00;99.90
52209;DHT22;38507;53.132;6.394;2023-02-11T09:21:45;8.30;99.90
52209;DHT22;38507;53.132;6.394;2023-02-11T09:24:11;7.50;99.90
52209;DHT22;38507;53.132;6.394;2023-02-11T09:26:37;8.40;99.90
52209;DHT22;38507;53.132;6.394;2023-02-11T09:29:03;8.30;99.90
52209;DHT22;38507;53.132;6.394;2023-02-11T09:31:30;7.50;99.90
52209;DHT22;38507;53.132;6.394;2023-02-11T09:34:02;7.60;99.90
52209;DHT22;38507;53.132;6.394;2023-02-11T09:36:34;7.60;99.90
52209;DHT22;38507;53.132;6.394;2023-02-11T09:39:05;7.70;99.90
52209;DHT22;38507;53.132;6.394;2023-02-11T09:44:21;7.70;99.90
52209;DHT22;38507;53.132;6.394;2023-02-11T09:49:32;7.80;99.90
52209;DHT22;38507;53.132;6.394;2023-02-11T09:54:51;7.90;99.90
52209;DHT22;38507;53.132;6.394;2023-02-11T09:57:18;8.00;99.90
52209;DHT22;38507;53.132;6.394;2023-02-11T09:59:43;8.60;99.90
52209;DHT22;38507;53.132;6.394;2023-02-11T10:02:19;9.20;99.90
52209;DHT22;38507;53.132;6.394;2023-02-11T10:07:29;8.30;99.90
52209;DHT22;38507;53.132;6.394;2023-02-11T10:10:17;8.40;99.90
52209;DHT22;38507;53.132;6.394;2023-02-11T10:15:57;8.50;99.90
52209;DHT22;38507;53.132;6.394;2023-02-11T10:21:36;8.60;99.90
52209;DHT22;38507;53.132;6.394;2023-02-11T10:24:10;8.70;99.90
52209;DHT22;38507;53.132;6.394;2023-02-11T10:26:37;9.20;99.90
52209;DHT22;38507;53.132;6.394;2023-02-11T10:31:45;8.80;99.90
52209;DHT22;38507;53.132;6.394;2023-02-11T10:34:14;8.90;99.90
52209;DHT22;38507;53.132;6.394;2023-02-11T10:36:41;9.50;99.90
52209;DHT22;38507;53.132;6.394;2023-02-11T10:39:16;9.90;99.90
52209;DHT22;38507;53.132;6.394;2023-02-11T10:41:44;9.50;99.90
52209;DHT22;38507;53.132;6.394;2023-02-11T10:44:40;9.00;99.90
52209;DHT22;38507;53.132;6.394;2023-02-11T10:47:15;9.00;99.90
52209;DHT22;38507;53.132;6.394;2023-02-11T10:49:44;9.10;99.90
52209;DHT22;38507;53.132;6.394;2023-02-11T10:52:17;9.10;99.90
52209;DHT22;38507;53.132;6.394;2023-02-11T10:55:13;10.10;99.90
52209;DHT22;38507;53.132;6.394;2023-02-11T10:57:48;9.10;99.90
52209;DHT22;38507;53.132;6.394;2023-02-11T11:02:57;9.20;99.90
52209;DHT22;38507;53.132;6.394;2023-02-11T11:05:34;9.20;99.90
52209;DHT22;38507;53.132;6.394;2023-02-11T11:08:05;10.10;99.90
52209;DHT22;38507;53.132;6.394;2023-02-11T11:14:17;9.10;99.90
52209;DHT22;38507;53.132;6.394;2023-02-11T11:16:51;9.10;99.90
52209;DHT22;38507;53.132;6.394;2023-02-11T11:19:23;10.10;99.90
52209;DHT22;38507;53.132;6.394;2023-02-11T11:21:51;9.80;99.90
52209;DHT22;38507;53.132;6.394;2023-02-11T11:26:57;9.80;99.90
52209;DHT22;38507;53.132;6.394;2023-02-11T11:29:37;9.40;99.90
52209;DHT22;38507;53.132;6.394;2023-02-11T11:32:18;9.10;99.90
52209;DHT22;38507;53.132;6.394;2023-02-11T11:34:58;10.00;99.90
52209;DHT22;38507;53.132;6.394;2023-02-11T11:37:31;9.30;99.90
52209;DHT22;38507;53.132;6.394;2023-02-11T11:40:19;9.20;99.90
52209;DHT22;38507;53.132;6.394;2023-02-11T11:45:35;9.20;99.90
52209;DHT22;38507;53.132;6.394;2023-02-11T11:48:39;9.10;99.90
52209;DHT22;38507;53.132;6.394;2023-02-11T11:51:10;9.20;99.90
52209;DHT22;38507;53.132;6.394;2023-02-11T11:54:04;9.50;99.90
52209;DHT22;38507;53.132;6.394;2023-02-11T11:56:34;9.30;99.90
52209;DHT22;38507;53.132;6.394;2023-02-11T11:59:09;9.70;99.90
52209;DHT22;38507;53.132;6.394;2023-02-11T12:07:22;9.40;99.90
52209;DHT22;38507;53.132;6.394;2023-02-11T12:13:16;9.50;99.90
52209;DHT22;38507;53.132;6.394;2023-02-11T12:26:48;9.60;99.90
52209;DHT22;38507;53.132;6.394;2023-02-11T12:31:59;9.90;99.90
52209;DHT22;38507;53.132;6.394;2023-02-11T12:34:38;9.70;99.90
52209;DHT22;38507;53.132;6.394;2023-02-11T12:42:43;9.80;99.90
52209;DHT22;38507;53.132;6.394;2023-02-11T12:56:47;9.90;99.90
52209;DHT22;38507;53.132;6.394;2023-02-11T13:01:57;10.30;99.90
52209;DHT22;38507;53.132;6.394;2023-02-11T13:04:39;9.90;99.90
52209;DHT22;38507;53.132;6.394;2023-02-11T13:07:25;9.90;99.90
52209;DHT22;38507;53.132;6.394;2023-02-11T13:10:06;10.10;99.90
52209;DHT22;38507;53.132;6.394;2023-02-11T13:12:35;9.90;99.90
52209;DHT22;38507;53.132;6.394;2023-02-11T13:15:20;9.90;99.90
52209;DHT22;38507;53.132;6.394;2023-02-11T13:20:57;9.90;99.90
52209;DHT22;38507;53.132;6.394;2023-02-11T13:23:37;9.90;99.90
52209;DHT22;38507;53.132;6.394;2023-02-11T13:26:18;9.80;99.90
52209;DHT22;38507;53.132;6.394;2023-02-11T13:31:39;9.80;99.90
52209;DHT22;38507;53.132;6.394;2023-02-11T13:34:26;10.60;99.90
52209;DHT22;38507;53.132;6.394;2023-02-11T13:36:55;10.60;99.90
52209;DHT22;38507;53.132;6.394;2023-02-11T13:39:22;10.20;99.90
52209;DHT22;38507;53.132;6.394;2023-02-11T13:41:48;10.20;99.90
52209;DHT22;38507;53.132;6.394;2023-02-11T13:46:59;10.10;99.90
52209;DHT22;38507;53.132;6.394;2023-02-11T13:51:56;10.30;99.90
52209;DHT22;38507;53.132;6.394;2023-02-11T13:54:28;10.40;99.90
52209;DHT22;38507;53.132;6.394;2023-02-11T13:57:35;9.60;99.90
52209;DHT22;38507;53.132;6.394;2023-02-11T14:14:32;9.50;99.90
52209;DHT22;38507;53.132;6.394;2023-02-11T14:19:33;10.00;99.90
52209;DHT22;38507;53.132;6.394;2023-02-11T14:22:12;9.50;99.90
52209;DHT22;38507;53.132;6.394;2023-02-11T14:24:56;9.60;99.90
52209;DHT22;38507;53.132;6.394;2023-02-11T14:27:45;9.40;99.90
52209;DHT22;38507;53.132;6.394;2023-02-11T14:30:25;9.40;99.90
52209;DHT22;38507;53.132;6.394;2023-02-11T14:36:17;9.40;99.90
52209;DHT22;38507;53.132;6.394;2023-02-11T14:39:08;9.40;99.90
52209;DHT22;38507;53.132;6.394;2023-02-11T14:41:40;9.40;99.90
52209;DHT22;38507;53.132;6.394;2023-02-11T14:44:19;9.30;99.90
52209;DHT22;38507;53.132;6.394;2023-02-11T14:46:47;9.30;99.90
52209;DHT22;38507;53.132;6.394;2023-02-11T14:49:25;9.80;99.90
52209;DHT22;38507;53.132;6.394;2023-02-11T14:51:55;10.00;99.90
52209;DHT22;38507;53.132;6.394;2023-02-11T14:54:25;9.50;99.90
52209;DHT22;38507;53.132;6.394;2023-02-11T14:57:11;10.00;99.90
52209;DHT22;38507;53.132;6.394;2023-02-11T14:59:37;9.80;99.90
52209;DHT22;38507;53.132;6.394;2023-02-11T15:02:19;10.00;99.90
52209;DHT22;38507;53.132;6.394;2023-02-11T15:04:45;9.20;99.90
52209;DHT22;38507;53.132;6.394;2023-02-11T15:07:12;10.10;99.90
52209;DHT22;38507;53.132;6.394;2023-02-11T15:09:53;9.30;99.90
52209;DHT22;38507;53.132;6.394;2023-02-11T15:12:24;9.20;99.90
52209;DHT22;38507;53.132;6.394;2023-02-11T15:14:54;9.20;99.90
52209;DHT22;38507;53.132;6.394;2023-02-11T15:17:23;10.00;99.90
52209;DHT22;38507;53.132;6.394;2023-02-11T15:19:52;9.60;99.90
52209;DHT22;38507;53.132;6.394;2023-02-11T15:22:22;9.30;99.90
52209;DHT22;38507;53.132;6.394;2023-02-11T15:25:08;9.60;99.90
52209;DHT22;38507;53.132;6.394;2023-02-11T15:27:42;9.20;99.90
52209;DHT22;38507;53.132;6.394;2023-02-11T15:32:50;9.20;99.90
52209;DHT22;38507;53.132;6.394;2023-02-11T15:35:17;9.20;99.90
52209;DHT22;38507;53.132;6.394;2023-02-11T15:37:43;9.70;99.90
52209;DHT22;38507;53.132;6.394;2023-02-11T15:40:19;9.80;99.90
52209;DHT22;38507;53.132;6.394;2023-02-11T15:43:01;9.10;99.90
52209;DHT22;38507;53.132;6.394;2023-02-11T15:45:39;9.10;99.90
52209;DHT22;38507;53.132;6.394;2023-02-11T15:48:15;9.10;99.90
52209;DHT22;38507;53.132;6.394;2023-02-11T15:50:50;9.00;99.90
52209;DHT22;38507;53.132;6.394;2023-02-11T15:55:44;9.00;99.90
52209;DHT22;38507;53.132;6.394;2023-02-11T15:58:10;9.10;99.90
52209;DHT22;38507;53.132;6.394;2023-02-11T16:00:45;9.40;99.90
52209;DHT22;38507;53.132;6.394;2023-02-11T16:03:23;9.10;99.90
52209;DHT22;38507;53.132;6.394;2023-02-11T16:05:49;9.80;99.90
52209;DHT22;38507;53.132;6.394;2023-02-11T16:08:22;9.50;99.90
52209;DHT22;38507;53.132;6.394;2023-02-11T16:10:57;8.80;99.90
52209;DHT22;38507;53.132;6.394;2023-02-11T16:13:25;9.60;99.90
52209;DHT22;38507;53.132;6.394;2023-02-11T16:16:01;9.30;99.90
52209;DHT22;38507;53.132;6.394;2023-02-11T16:18:35;9.40;99.90
52209;DHT22;38507;53.132;6.394;2023-02-11T16:21:03;8.80;99.90
52209;DHT22;38507;53.132;6.394;2023-02-11T16:23:32;8.70;99.90
52209;DHT22;38507;53.132;6.394;2023-02-11T16:26:18;9.30;99.90
52209;DHT22;38507;53.132;6.394;2023-02-11T16:28:46;9.10;99.90
52209;DHT22;38507;53.132;6.394;2023-02-11T16:31:12;9.30;99.90
52209;DHT22;38507;53.132;6.394;2023-02-11T16:33:38;9.30;99.90
52209;DHT22;38507;53.132;6.394;2023-02-11T16:36:14;9.50;99.90
52209;DHT22;38507;53.132;6.394;2023-02-11T16:38:42;9.00;99.90
52209;DHT22;38507;53.132;6.394;2023-02-11T16:41:07;8.80;99.90
52209;DHT22;38507;53.132;6.394;2023-02-11T16:43:36;9.10;99.90
52209;DHT22;38507;53.132;6.394;2023-02-11T16:46:03;8.50;99.90
52209;DHT22;38507;53.132;6.394;2023-02-11T16:48:29;8.50;99.90
52209;DHT22;38507;53.132;6.394;2023-02-11T16:50:56;9.10;99.90
52209;DHT22;38507;53.132;6.394;2023-02-11T16:53:23;9.40;99.90
52209;DHT22;38507;53.132;6.394;2023-02-11T16:55:50;9.30;99.90
52209;DHT22;38507;53.132;6.394;2023-02-11T16:58:16;9.20;99.90
52209;DHT22;38507;53.132;6.394;2023-02-11T17:00:43;8.40;99.90
52209;DHT22;38507;53.132;6.394;2023-02-11T17:03:16;9.40;99.90
52209;DHT22;38507;53.132;6.394;2023-02-11T17:05:45;8.40;99.90
52209;DHT22;38507;53.132;6.394;2023-02-11T17:08:11;9.00;99.90
52209;DHT22;38507;53.132;6.394;2023-02-11T17:10:37;8.00;99.90
52209;DHT22;38507;53.132;6.394;2023-02-11T17:13:03;9.20;99.90
52209;DHT22;38507;53.132;6.394;2023-02-11T17:15:37;9.40;99.90
52209;DHT22;38507;53.132;6.394;2023-02-11T17:18:03;8.20;99.90
52209;DHT22;38507;53.132;6.394;2023-02-11T17:20:29;8.20;99.90
52209;DHT22;38507;53.132;6.394;2023-02-11T17:22:55;9.10;99.90
52209;DHT22;38507;53.132;6.394;2023-02-11T17:25:20;9.00;99.90
52209;DHT22;38507;53.132;6.394;2023-02-11T17:28:00;8.20;99.90
52209;DHT22;38507;53.132;6.394;2023-02-11T17:30:26;8.80;99.90
52209;DHT22;38507;53.132;6.394;2023-02-11T17:32:52;8.10;99.90
52209;DHT22;38507;53.132;6.394;2023-02-11T17:35:17;8.70;99.90
52209;DHT22;38507;53.132;6.394;2023-02-11T17:37:43;9.00;99.90
52209;DHT22;38507;53.132;6.394;2023-02-11T17:40:09;8.10;99.90
52209;DHT22;38507;53.132;6.394;2023-02-11T17:42:35;8.10;99.90
52209;DHT22;38507;53.132;6.394;2023-02-11T17:45:01;8.60;99.90
52209;DHT22;38507;53.132;6.394;2023-02-11T17:47:26;8.20;99.90
52209;DHT22;38507;53.132;6.394;2023-02-11T17:49:52;8.90;99.90
52209;DHT22;38507;53.132;6.394;2023-02-11T17:52:18;8.70;99.90
52209;DHT22;38507;53.132;6.394;2023-02-11T17:54:46;8.60;99.90
52209;DHT22;38507;53.132;6.394;2023-02-11T17:57:12;8.60;99.90
52209;DHT22;38507;53.132;6.394;2023-02-11T17:59:38;7.70;99.90
52209;DHT22;38507;53.132;6.394;2023-02-11T18:02:04;7.60;99.90
52209;DHT22;38507;53.132;6.394;2023-02-11T18:04:30;8.10;99.90
52209;DHT22;38507;53.132;6.394;2023-02-11T18:06:56;8.70;99.90
52209;DHT22;38507;53.132;6.394;2023-02-11T18:09:35;8.60;99.90
52209;DHT22;38507;53.132;6.394;2023-02-11T18:12:01;7.50;99.90
52209;DHT22;38507;53.132;6.394;2023-02-11T18:17:03;6.70;99.90
52209;DHT22;38507;53.132;6.394;2023-02-11T18:19:29;8.40;99.90
52209;DHT22;38507;53.132;6.394;2023-02-11T18:21:57;7.90;99.90
52209;DHT22;38507;53.132;6.394;2023-02-11T18:24:26;7.40;99.90